Plainfield, Wisconsin
Current Conditions -  °F | °C
As of 3:13 AM on Thursday 23 Oct 2014 (Local Time) from KY50 Reporting Station
Haze Haze  
Wind Chill: 30°   Ceiling: 100
Heat Index: 30°   Visibility: 1.5mi
Dew Point: 28°   Wind: 0mph
Humidity: 93%   Direction: NA
Pressure: 30.19"   Gusts: NA
Location:  44.21°N, 89.49°W
Report Text: KY50 230813Z AUTO 00000KT 1 1/2SM BR BKN001 M01/M02 A3019 RMK AO2 TSNO
Loading
Personal Weather Stations






























Interactive Weather Map
Tropical Storm Tracking
New forecast layout! Learn more

10-Day Weather Forecast

Advertisements
Track Severe Weather on mobile